sensor_id;sensor_type;location;lat;lon;timestamp;pressure;altitude;pressure_sealevel;temperature;humidity
38688;BME280;24444;53.216;-6.664;2022-11-21T00:01:15;99076.24;;;1.17;100.00
38688;BME280;24444;53.216;-6.664;2022-11-21T00:03:43;99079.18;;;0.67;100.00
38688;BME280;24444;53.216;-6.664;2022-11-21T00:06:11;99065.31;;;1.45;100.00
38688;BME280;24444;53.216;-6.664;2022-11-21T00:08:38;99064.93;;;0.90;100.00
38688;BME280;24444;53.216;-6.664;2022-11-21T00:11:05;99061.42;;;1.25;100.00
38688;BME280;24444;53.216;-6.664;2022-11-21T00:13:33;99056.05;;;1.19;100.00
38688;BME280;24444;53.216;-6.664;2022-11-21T00:16:03;99047.19;;;1.32;100.00
38688;BME280;24444;53.216;-6.664;2022-11-21T00:18:32;99039.70;;;1.36;100.00
38688;BME280;24444;53.216;-6.664;2022-11-21T00:21:03;99027.38;;;1.49;100.00
38688;BME280;24444;53.216;-6.664;2022-11-21T00:23:31;99011.20;;;1.39;100.00
38688;BME280;24444;53.216;-6.664;2022-11-21T00:25:58;98998.19;;;1.45;100.00
38688;BME280;24444;53.216;-6.664;2022-11-21T00:28:29;98991.15;;;1.46;100.00
38688;BME280;24444;53.216;-6.664;2022-11-21T00:30:57;98988.59;;;1.70;100.00
38688;BME280;24444;53.216;-6.664;2022-11-21T00:33:24;98979.69;;;1.12;100.00
38688;BME280;24444;53.216;-6.664;2022-11-21T00:35:52;98985.97;;;1.31;100.00
38688;BME280;24444;53.216;-6.664;2022-11-21T00:38:20;98984.17;;;1.48;100.00
38688;BME280;24444;53.216;-6.664;2022-11-21T00:40:47;98976.18;;;1.90;100.00
38688;BME280;24444;53.216;-6.664;2022-11-21T00:43:14;98963.40;;;1.87;100.00
38688;BME280;24444;53.216;-6.664;2022-11-21T00:45:42;98959.14;;;1.01;100.00
38688;BME280;24444;53.216;-6.664;2022-11-21T00:48:10;98947.71;;;1.90;100.00
38688;BME280;24444;53.216;-6.664;2022-11-21T00:50:38;98941.43;;;1.45;100.00
38688;BME280;24444;53.216;-6.664;2022-11-21T00:53:05;98936.96;;;1.80;100.00
38688;BME280;24444;53.216;-6.664;2022-11-21T00:55:33;98931.56;;;1.80;100.00
38688;BME280;24444;53.216;-6.664;2022-11-21T00:58:01;98928.70;;;1.78;100.00
38688;BME280;24444;53.216;-6.664;2022-11-21T01:00:28;98921.60;;;1.93;100.00
38688;BME280;24444;53.216;-6.664;2022-11-21T01:02:56;98903.76;;;1.66;100.00
38688;BME280;24444;53.216;-6.664;2022-11-21T01:05:24;98892.36;;;1.86;100.00
38688;BME280;24444;53.216;-6.664;2022-11-21T01:10:09;98880.22;;;1.45;100.00
38688;BME280;24444;53.216;-6.664;2022-11-21T01:12:36;98875.45;;;1.74;100.00
38688;BME280;24444;53.216;-6.664;2022-11-21T01:15:05;98868.46;;;1.44;100.00
38688;BME280;24444;53.216;-6.664;2022-11-21T01:17:32;98858.44;;;1.53;100.00
38688;BME280;24444;53.216;-6.664;2022-11-21T01:20:00;98844.53;;;1.67;100.00
38688;BME280;24444;53.216;-6.664;2022-11-21T01:22:27;98838.28;;;1.85;100.00
38688;BME280;24444;53.216;-6.664;2022-11-21T01:24:54;98827.07;;;1.99;100.00
38688;BME280;24444;53.216;-6.664;2022-11-21T01:27:21;98814.33;;;2.01;100.00
38688;BME280;24444;53.216;-6.664;2022-11-21T01:29:49;98806.88;;;1.93;100.00
38688;BME280;24444;53.216;-6.664;2022-11-21T01:32:17;98794.54;;;2.32;100.00
38688;BME280;24444;53.216;-6.664;2022-11-21T01:34:45;98787.64;;;2.52;100.00
38688;BME280;24444;53.216;-6.664;2022-11-21T01:37:12;98779.97;;;2.12;100.00
38688;BME280;24444;53.216;-6.664;2022-11-21T01:39:40;98769.67;;;1.54;100.00
38688;BME280;24444;53.216;-6.664;2022-11-21T01:42:08;98761.27;;;2.04;100.00
38688;BME280;24444;53.216;-6.664;2022-11-21T01:44:47;98750.23;;;1.86;100.00
38688;BME280;24444;53.216;-6.664;2022-11-21T01:47:16;98737.48;;;1.63;100.00
38688;BME280;24444;53.216;-6.664;2022-11-21T01:49:43;98720.68;;;1.83;100.00
38688;BME280;24444;53.216;-6.664;2022-11-21T01:52:15;98701.54;;;1.76;100.00
38688;BME280;24444;53.216;-6.664;2022-11-21T01:54:45;98687.88;;;1.65;100.00
38688;BME280;24444;53.216;-6.664;2022-11-21T01:57:18;98674.43;;;1.97;100.00
38688;BME280;24444;53.216;-6.664;2022-11-21T01:59:52;98665.69;;;2.00;100.00
38688;BME280;24444;53.216;-6.664;2022-11-21T02:02:23;98661.13;;;1.65;100.00
38688;BME280;24444;53.216;-6.664;2022-11-21T02:04:52;98654.36;;;1.93;100.00
38688;BME280;24444;53.216;-6.664;2022-11-21T02:07:22;98645.67;;;2.03;100.00
38688;BME280;24444;53.216;-6.664;2022-11-21T02:09:52;98642.78;;;1.58;100.00
38688;BME280;24444;53.216;-6.664;2022-11-21T02:12:25;98628.03;;;2.05;100.00
38688;BME280;24444;53.216;-6.664;2022-11-21T02:14:55;98606.54;;;1.97;100.00
38688;BME280;24444;53.216;-6.664;2022-11-21T02:17:25;98590.80;;;2.37;100.00
38688;BME280;24444;53.216;-6.664;2022-11-21T02:19:54;98582.30;;;2.40;100.00
38688;BME280;24444;53.216;-6.664;2022-11-21T02:22:30;98569.17;;;2.24;100.00
38688;BME280;24444;53.216;-6.664;2022-11-21T02:25:04;98564.66;;;2.07;100.00
38688;BME280;24444;53.216;-6.664;2022-11-21T02:27:32;98560.52;;;2.31;100.00
38688;BME280;24444;53.216;-6.664;2022-11-21T02:30:00;98553.76;;;2.24;100.00
38688;BME280;24444;53.216;-6.664;2022-11-21T02:32:33;98549.36;;;2.19;100.00
38688;BME280;24444;53.216;-6.664;2022-11-21T02:35:01;98544.38;;;2.22;100.00
38688;BME280;24444;53.216;-6.664;2022-11-21T02:37:28;98553.38;;;2.10;100.00
38688;BME280;24444;53.216;-6.664;2022-11-21T02:39:59;98546.66;;;2.23;100.00
38688;BME280;24444;53.216;-6.664;2022-11-21T02:42:30;98546.26;;;2.18;100.00
38688;BME280;24444;53.216;-6.664;2022-11-21T02:45:07;98539.74;;;2.18;100.00
38688;BME280;24444;53.216;-6.664;2022-11-21T02:47:37;98530.77;;;1.90;100.00
38688;BME280;24444;53.216;-6.664;2022-11-21T02:50:11;98520.02;;;2.28;100.00
38688;BME280;24444;53.216;-6.664;2022-11-21T02:52:39;98512.37;;;2.11;100.00
38688;BME280;24444;53.216;-6.664;2022-11-21T02:55:08;98500.62;;;1.97;100.00
38688;BME280;24444;53.216;-6.664;2022-11-21T02:57:36;98481.38;;;2.28;100.00
38688;BME280;24444;53.216;-6.664;2022-11-21T03:00:05;98468.94;;;2.13;100.00
38688;BME280;24444;53.216;-6.664;2022-11-21T03:02:32;98462.56;;;2.51;100.00
38688;BME280;24444;53.216;-6.664;2022-11-21T03:05:00;98463.92;;;2.94;100.00
38688;BME280;24444;53.216;-6.664;2022-11-21T03:07:27;98447.05;;;2.58;100.00
38688;BME280;24444;53.216;-6.664;2022-11-21T03:09:55;98434.20;;;2.75;100.00
38688;BME280;24444;53.216;-6.664;2022-11-21T03:12:22;98426.02;;;2.90;100.00
38688;BME280;24444;53.216;-6.664;2022-11-21T03:14:50;98420.66;;;3.01;100.00
38688;BME280;24444;53.216;-6.664;2022-11-21T03:17:18;98402.45;;;2.62;100.00
38688;BME280;24444;53.216;-6.664;2022-11-21T03:19:46;98381.82;;;3.14;100.00
38688;BME280;24444;53.216;-6.664;2022-11-21T03:22:14;98370.74;;;3.16;100.00
38688;BME280;24444;53.216;-6.664;2022-11-21T03:24:41;98345.14;;;3.09;100.00
38688;BME280;24444;53.216;-6.664;2022-11-21T03:27:08;98329.95;;;2.76;100.00
38688;BME280;24444;53.216;-6.664;2022-11-21T03:29:36;98314.71;;;2.66;100.00
38688;BME280;24444;53.216;-6.664;2022-11-21T03:32:04;98300.82;;;2.80;100.00
38688;BME280;24444;53.216;-6.664;2022-11-21T03:34:31;98288.92;;;3.75;100.00
38688;BME280;24444;53.216;-6.664;2022-11-21T03:36:58;98275.89;;;3.76;100.00
38688;BME280;24444;53.216;-6.664;2022-11-21T03:39:25;98265.40;;;3.34;100.00
38688;BME280;24444;53.216;-6.664;2022-11-21T03:41:52;98252.59;;;3.08;100.00
38688;BME280;24444;53.216;-6.664;2022-11-21T03:44:19;98246.61;;;2.78;100.00
38688;BME280;24444;53.216;-6.664;2022-11-21T03:46:46;98242.51;;;3.03;100.00
38688;BME280;24444;53.216;-6.664;2022-11-21T03:49:14;98234.84;;;2.94;100.00
38688;BME280;24444;53.216;-6.664;2022-11-21T03:51:42;98233.11;;;3.20;100.00
38688;BME280;24444;53.216;-6.664;2022-11-21T03:54:10;98225.64;;;2.74;100.00
38688;BME280;24444;53.216;-6.664;2022-11-21T03:56:37;98220.74;;;3.64;100.00
38688;BME280;24444;53.216;-6.664;2022-11-21T03:59:05;98222.67;;;3.18;100.00
38688;BME280;24444;53.216;-6.664;2022-11-21T04:01:32;98210.09;;;2.77;100.00
38688;BME280;24444;53.216;-6.664;2022-11-21T04:03:59;98198.14;;;2.74;100.00
38688;BME280;24444;53.216;-6.664;2022-11-21T04:06:27;98189.90;;;2.71;100.00
38688;BME280;24444;53.216;-6.664;2022-11-21T04:08:54;98185.71;;;2.92;100.00
38688;BME280;24444;53.216;-6.664;2022-11-21T04:11:22;98180.50;;;2.87;100.00
38688;BME280;24444;53.216;-6.664;2022-11-21T04:13:49;98168.66;;;2.72;100.00
38688;BME280;24444;53.216;-6.664;2022-11-21T04:16:17;98158.28;;;3.05;100.00
38688;BME280;24444;53.216;-6.664;2022-11-21T04:18:45;98151.91;;;3.20;100.00
38688;BME280;24444;53.216;-6.664;2022-11-21T04:21:12;98148.43;;;2.68;100.00
38688;BME280;24444;53.216;-6.664;2022-11-21T04:23:39;98136.87;;;2.82;100.00
38688;BME280;24444;53.216;-6.664;2022-11-21T04:26:06;98131.94;;;2.48;100.00
38688;BME280;24444;53.216;-6.664;2022-11-21T04:28:33;98129.63;;;2.45;100.00
38688;BME280;24444;53.216;-6.664;2022-11-21T04:31:03;98123.38;;;2.75;100.00
38688;BME280;24444;53.216;-6.664;2022-11-21T04:33:30;98120.57;;;2.54;100.00
38688;BME280;24444;53.216;-6.664;2022-11-21T04:35:57;98116.80;;;2.00;100.00
38688;BME280;24444;53.216;-6.664;2022-11-21T04:38:24;98112.72;;;2.37;100.00
38688;BME280;24444;53.216;-6.664;2022-11-21T04:40:51;98109.97;;;2.40;100.00
38688;BME280;24444;53.216;-6.664;2022-11-21T04:43:19;98106.74;;;2.46;100.00
38688;BME280;24444;53.216;-6.664;2022-11-21T04:45:47;98102.02;;;2.07;100.00
38688;BME280;24444;53.216;-6.664;2022-11-21T04:48:15;98097.27;;;2.62;100.00
38688;BME280;24444;53.216;-6.664;2022-11-21T04:50:42;98077.63;;;2.37;100.00
38688;BME280;24444;53.216;-6.664;2022-11-21T04:53:11;98068.67;;;2.18;100.00
38688;BME280;24444;53.216;-6.664;2022-11-21T04:55:39;98064.01;;;2.24;100.00
38688;BME280;24444;53.216;-6.664;2022-11-21T04:58:06;98060.65;;;2.20;100.00
38688;BME280;24444;53.216;-6.664;2022-11-21T05:00:34;98052.76;;;2.11;100.00
38688;BME280;24444;53.216;-6.664;2022-11-21T05:03:02;98036.20;;;1.83;100.00
38688;BME280;24444;53.216;-6.664;2022-11-21T05:05:30;98033.56;;;2.19;100.00
38688;BME280;24444;53.216;-6.664;2022-11-21T05:07:58;98019.97;;;1.78;100.00
38688;BME280;24444;53.216;-6.664;2022-11-21T05:10:25;98015.33;;;2.03;100.00
38688;BME280;24444;53.216;-6.664;2022-11-21T05:12:57;98004.97;;;1.79;100.00
38688;BME280;24444;53.216;-6.664;2022-11-21T05:15:25;97999.86;;;1.63;100.00
38688;BME280;24444;53.216;-6.664;2022-11-21T05:17:53;97987.42;;;1.92;100.00
38688;BME280;24444;53.216;-6.664;2022-11-21T05:20:21;97984.38;;;2.33;100.00
38688;BME280;24444;53.216;-6.664;2022-11-21T05:22:50;97973.36;;;1.85;100.00
38688;BME280;24444;53.216;-6.664;2022-11-21T05:25:18;97974.84;;;1.71;100.00
38688;BME280;24444;53.216;-6.664;2022-11-21T05:27:46;97964.87;;;1.40;100.00
38688;BME280;24444;53.216;-6.664;2022-11-21T05:30:14;97952.99;;;1.64;100.00
38688;BME280;24444;53.216;-6.664;2022-11-21T05:32:43;97949.16;;;2.36;100.00
38688;BME280;24444;53.216;-6.664;2022-11-21T05:35:10;97941.18;;;2.39;100.00
38688;BME280;24444;53.216;-6.664;2022-11-21T05:37:37;97932.15;;;2.12;100.00
38688;BME280;24444;53.216;-6.664;2022-11-21T05:40:06;97924.91;;;1.48;100.00
38688;BME280;24444;53.216;-6.664;2022-11-21T05:42:37;97915.78;;;1.65;100.00
38688;BME280;24444;53.216;-6.664;2022-11-21T05:45:06;97909.69;;;1.75;100.00
38688;BME280;24444;53.216;-6.664;2022-11-21T05:47:34;97900.77;;;2.07;100.00
38688;BME280;24444;53.216;-6.664;2022-11-21T05:50:01;97896.23;;;1.66;100.00
38688;BME280;24444;53.216;-6.664;2022-11-21T05:52:29;97900.70;;;1.91;100.00
38688;BME280;24444;53.216;-6.664;2022-11-21T05:54:57;97898.31;;;2.02;100.00
38688;BME280;24444;53.216;-6.664;2022-11-21T05:57:25;97899.01;;;1.58;100.00
38688;BME280;24444;53.216;-6.664;2022-11-21T05:59:52;97894.89;;;2.00;100.00
38688;BME280;24444;53.216;-6.664;2022-11-21T06:02:19;97903.24;;;1.48;100.00
38688;BME280;24444;53.216;-6.664;2022-11-21T06:04:46;97895.55;;;1.84;100.00
38688;BME280;24444;53.216;-6.664;2022-11-21T06:07:13;97886.46;;;2.13;100.00
38688;BME280;24444;53.216;-6.664;2022-11-21T06:09:40;97897.99;;;1.66;100.00
38688;BME280;24444;53.216;-6.664;2022-11-21T06:12:08;97896.45;;;1.89;100.00
38688;BME280;24444;53.216;-6.664;2022-11-21T06:14:34;97900.28;;;1.82;100.00
38688;BME280;24444;53.216;-6.664;2022-11-21T06:17:02;97873.36;;;1.93;100.00
38688;BME280;24444;53.216;-6.664;2022-11-21T06:19:28;97871.27;;;1.72;100.00
38688;BME280;24444;53.216;-6.664;2022-11-21T06:21:56;97857.80;;;1.75;100.00
38688;BME280;24444;53.216;-6.664;2022-11-21T06:24:23;97853.67;;;1.79;100.00
38688;BME280;24444;53.216;-6.664;2022-11-21T06:26:51;97851.72;;;1.57;100.00
38688;BME280;24444;53.216;-6.664;2022-11-21T06:29:19;97845.16;;;1.63;100.00
38688;BME280;24444;53.216;-6.664;2022-11-21T06:31:47;97842.33;;;1.28;100.00
38688;BME280;24444;53.216;-6.664;2022-11-21T06:34:14;97837.56;;;1.63;100.00
38688;BME280;24444;53.216;-6.664;2022-11-21T06:36:42;97826.39;;;1.39;100.00
38688;BME280;24444;53.216;-6.664;2022-11-21T06:39:09;97819.06;;;1.90;100.00
38688;BME280;24444;53.216;-6.664;2022-11-21T06:41:36;97809.91;;;1.72;100.00
38688;BME280;24444;53.216;-6.664;2022-11-21T06:44:03;97807.47;;;1.57;100.00
38688;BME280;24444;53.216;-6.664;2022-11-21T06:46:31;97802.12;;;1.05;100.00
38688;BME280;24444;53.216;-6.664;2022-11-21T06:48:57;97801.00;;;1.28;100.00
38688;BME280;24444;53.216;-6.664;2022-11-21T06:51:25;97795.29;;;1.64;100.00
38688;BME280;24444;53.216;-6.664;2022-11-21T06:53:54;97784.29;;;1.61;100.00
38688;BME280;24444;53.216;-6.664;2022-11-21T06:56:23;97784.00;;;1.90;100.00
38688;BME280;24444;53.216;-6.664;2022-11-21T06:58:51;97775.96;;;1.48;100.00
38688;BME280;24444;53.216;-6.664;2022-11-21T07:01:19;97765.93;;;1.14;100.00
38688;BME280;24444;53.216;-6.664;2022-11-21T07:03:46;97764.12;;;1.91;100.00
38688;BME280;24444;53.216;-6.664;2022-11-21T07:06:14;97745.47;;;1.88;100.00
38688;BME280;24444;53.216;-6.664;2022-11-21T07:08:42;97731.25;;;1.51;100.00
38688;BME280;24444;53.216;-6.664;2022-11-21T07:11:10;97725.56;;;1.31;100.00
38688;BME280;24444;53.216;-6.664;2022-11-21T07:13:38;97728.05;;;1.34;100.00
38688;BME280;24444;53.216;-6.664;2022-11-21T07:16:07;97723.12;;;1.16;100.00
38688;BME280;24444;53.216;-6.664;2022-11-21T07:18:36;97723.33;;;1.36;100.00
38688;BME280;24444;53.216;-6.664;2022-11-21T07:21:05;97718.78;;;1.01;100.00
38688;BME280;24444;53.216;-6.664;2022-11-21T07:23:33;97708.36;;;1.44;100.00
38688;BME280;24444;53.216;-6.664;2022-11-21T07:26:01;97703.60;;;1.67;100.00
38688;BME280;24444;53.216;-6.664;2022-11-21T07:28:30;97694.88;;;2.12;100.00
38688;BME280;24444;53.216;-6.664;2022-11-21T07:30:58;97680.23;;;1.66;100.00
38688;BME280;24444;53.216;-6.664;2022-11-21T07:33:26;97665.27;;;1.52;100.00
38688;BME280;24444;53.216;-6.664;2022-11-21T07:35:55;97661.01;;;2.27;100.00
38688;BME280;24444;53.216;-6.664;2022-11-21T07:38:22;97662.19;;;1.37;100.00
38688;BME280;24444;53.216;-6.664;2022-11-21T07:40:50;97657.80;;;1.84;100.00
38688;BME280;24444;53.216;-6.664;2022-11-21T07:43:18;97645.59;;;2.02;100.00
38688;BME280;24444;53.216;-6.664;2022-11-21T07:45:46;97630.75;;;1.36;100.00
38688;BME280;24444;53.216;-6.664;2022-11-21T07:48:13;97620.48;;;1.48;100.00
38688;BME280;24444;53.216;-6.664;2022-11-21T07:50:41;97617.82;;;1.21;100.00
38688;BME280;24444;53.216;-6.664;2022-11-21T07:53:09;97611.61;;;1.45;100.00
38688;BME280;24444;53.216;-6.664;2022-11-21T07:55:37;97609.11;;;1.02;100.00
38688;BME280;24444;53.216;-6.664;2022-11-21T07:58:06;97613.48;;;1.21;100.00
38688;BME280;24444;53.216;-6.664;2022-11-21T08:00:36;97613.17;;;1.01;100.00
38688;BME280;24444;53.216;-6.664;2022-11-21T08:03:04;97603.59;;;1.09;100.00
38688;BME280;24444;53.216;-6.664;2022-11-21T08:05:35;97592.18;;;0.87;100.00
38688;BME280;24444;53.216;-6.664;2022-11-21T08:08:02;97591.26;;;1.17;100.00
38688;BME280;24444;53.216;-6.664;2022-11-21T08:10:29;97573.43;;;1.23;100.00
38688;BME280;24444;53.216;-6.664;2022-11-21T08:12:56;97567.22;;;1.40;100.00
38688;BME280;24444;53.216;-6.664;2022-11-21T08:15:23;97567.47;;;1.29;100.00
38688;BME280;24444;53.216;-6.664;2022-11-21T08:17:50;97561.05;;;1.52;100.00
38688;BME280;24444;53.216;-6.664;2022-11-21T08:20:17;97565.80;;;1.83;100.00
38688;BME280;24444;53.216;-6.664;2022-11-21T08:22:44;97565.54;;;1.37;100.00
38688;BME280;24444;53.216;-6.664;2022-11-21T08:25:11;97550.49;;;1.56;100.00
38688;BME280;24444;53.216;-6.664;2022-11-21T08:27:39;97539.30;;;1.66;100.00
38688;BME280;24444;53.216;-6.664;2022-11-21T08:30:08;97524.18;;;1.72;100.00
38688;BME280;24444;53.216;-6.664;2022-11-21T08:32:36;97526.31;;;1.76;100.00
38688;BME280;24444;53.216;-6.664;2022-11-21T08:35:04;97522.81;;;1.74;100.00
38688;BME280;24444;53.216;-6.664;2022-11-21T08:37:31;97513.68;;;1.73;100.00
38688;BME280;24444;53.216;-6.664;2022-11-21T08:39:58;97509.71;;;2.15;100.00
38688;BME280;24444;53.216;-6.664;2022-11-21T08:42:25;97506.80;;;2.25;100.00
38688;BME280;24444;53.216;-6.664;2022-11-21T08:44:53;97508.51;;;2.00;100.00
38688;BME280;24444;53.216;-6.664;2022-11-21T08:47:20;97507.57;;;2.06;100.00
38688;BME280;24444;53.216;-6.664;2022-11-21T08:49:48;97498.23;;;2.05;100.00
38688;BME280;24444;53.216;-6.664;2022-11-21T08:52:15;97492.92;;;1.89;100.00
38688;BME280;24444;53.216;-6.664;2022-11-21T08:54:42;97487.03;;;1.98;100.00
38688;BME280;24444;53.216;-6.664;2022-11-21T08:57:10;97489.82;;;1.69;100.00
38688;BME280;24444;53.216;-6.664;2022-11-21T08:59:38;97498.38;;;1.64;100.00
38688;BME280;24444;53.216;-6.664;2022-11-21T09:02:05;97501.13;;;1.58;100.00
38688;BME280;24444;53.216;-6.664;2022-11-21T09:04:33;97498.82;;;1.56;100.00
38688;BME280;24444;53.216;-6.664;2022-11-21T09:07:01;97491.40;;;1.29;100.00
38688;BME280;24444;53.216;-6.664;2022-11-21T09:09:28;97511.67;;;0.25;100.00
38688;BME280;24444;53.216;-6.664;2022-11-21T09:11:55;97527.04;;;0.61;100.00
38688;BME280;24444;53.216;-6.664;2022-11-21T09:14:22;97536.79;;;0.07;100.00
38688;BME280;24444;53.216;-6.664;2022-11-21T09:16:49;97553.71;;;-0.08;100.00
38688;BME280;24444;53.216;-6.664;2022-11-21T09:19:16;97568.74;;;-0.48;100.00
38688;BME280;24444;53.216;-6.664;2022-11-21T09:21:44;97585.95;;;0.22;100.00
38688;BME280;24444;53.216;-6.664;2022-11-21T09:24:11;97588.94;;;-0.67;100.00
38688;BME280;24444;53.216;-6.664;2022-11-21T09:26:38;97608.58;;;-0.57;100.00
38688;BME280;24444;53.216;-6.664;2022-11-21T09:29:05;97622.69;;;-0.32;100.00
38688;BME280;24444;53.216;-6.664;2022-11-21T09:31:33;97642.31;;;-0.58;100.00
38688;BME280;24444;53.216;-6.664;2022-11-21T09:34:00;97650.01;;;-0.57;100.00
38688;BME280;24444;53.216;-6.664;2022-11-21T09:36:28;97666.47;;;-0.47;100.00
38688;BME280;24444;53.216;-6.664;2022-11-21T09:38:55;97670.69;;;-0.50;100.00
38688;BME280;24444;53.216;-6.664;2022-11-21T09:41:28;97671.41;;;0.46;100.00
38688;BME280;24444;53.216;-6.664;2022-11-21T09:44:03;97669.19;;;-0.06;100.00
38688;BME280;24444;53.216;-6.664;2022-11-21T09:46:38;97675.07;;;-0.35;100.00
38688;BME280;24444;53.216;-6.664;2022-11-21T09:49:11;97678.18;;;-0.10;100.00
38688;BME280;24444;53.216;-6.664;2022-11-21T09:51:41;97688.49;;;-0.68;100.00
38688;BME280;24444;53.216;-6.664;2022-11-21T09:54:15;97686.80;;;-0.23;100.00
38688;BME280;24444;53.216;-6.664;2022-11-21T09:56:45;97689.72;;;-0.30;100.00
38688;BME280;24444;53.216;-6.664;2022-11-21T09:59:26;97691.32;;;-0.47;100.00
38688;BME280;24444;53.216;-6.664;2022-11-21T10:01:56;97683.75;;;0.04;100.00
38688;BME280;24444;53.216;-6.664;2022-11-21T10:04:24;97681.97;;;-0.42;100.00
38688;BME280;24444;53.216;-6.664;2022-11-21T10:06:59;97679.61;;;-0.63;100.00
38688;BME280;24444;53.216;-6.664;2022-11-21T10:09:38;97682.09;;;0.07;100.00
38688;BME280;24444;53.216;-6.664;2022-11-21T10:12:17;97682.19;;;-0.09;100.00
38688;BME280;24444;53.216;-6.664;2022-11-21T10:14:57;97677.71;;;-0.28;100.00
38688;BME280;24444;53.216;-6.664;2022-11-21T10:17:38;97666.62;;;-0.03;100.00
38688;BME280;24444;53.216;-6.664;2022-11-21T10:20:25;97663.26;;;0.24;100.00
38688;BME280;24444;53.216;-6.664;2022-11-21T10:23:14;97668.22;;;0.06;100.00
38688;BME280;24444;53.216;-6.664;2022-11-21T10:25:49;97668.72;;;-0.03;100.00
38688;BME280;24444;53.216;-6.664;2022-11-21T10:28:25;97670.58;;;-0.01;100.00
38688;BME280;24444;53.216;-6.664;2022-11-21T10:30:57;97678.44;;;-0.31;100.00
38688;BME280;24444;53.216;-6.664;2022-11-21T10:33:30;97688.57;;;0.03;100.00
38688;BME280;24444;53.216;-6.664;2022-11-21T10:36:01;97686.81;;;-0.62;100.00
38688;BME280;24444;53.216;-6.664;2022-11-21T10:38:37;97684.76;;;0.41;100.00
38688;BME280;24444;53.216;-6.664;2022-11-21T10:41:09;97690.15;;;0.39;100.00
38688;BME280;24444;53.216;-6.664;2022-11-21T10:43:45;97693.83;;;0.48;100.00
38688;BME280;24444;53.216;-6.664;2022-11-21T10:46:15;97692.93;;;0.53;100.00
38688;BME280;24444;53.216;-6.664;2022-11-21T10:48:47;97688.58;;;0.29;100.00
38688;BME280;24444;53.216;-6.664;2022-11-21T10:51:27;97689.61;;;0.27;100.00
38688;BME280;24444;53.216;-6.664;2022-11-21T10:54:04;97691.68;;;0.27;100.00
38688;BME280;24444;53.216;-6.664;2022-11-21T10:56:33;97693.15;;;0.34;100.00
38688;BME280;24444;53.216;-6.664;2022-11-21T10:59:12;97690.61;;;0.71;100.00
38688;BME280;24444;53.216;-6.664;2022-11-21T11:01:54;97692.78;;;0.55;100.00
38688;BME280;24444;53.216;-6.664;2022-11-21T11:04:21;97691.14;;;0.37;100.00
38688;BME280;24444;53.216;-6.664;2022-11-21T11:06:49;97690.25;;;0.40;100.00
38688;BME280;24444;53.216;-6.664;2022-11-21T11:09:25;97693.33;;;0.76;100.00
38688;BME280;24444;53.216;-6.664;2022-11-21T11:12:00;97697.98;;;0.91;100.00
38688;BME280;24444;53.216;-6.664;2022-11-21T11:14:54;97701.92;;;0.74;100.00
38688;BME280;24444;53.216;-6.664;2022-11-21T11:17:27;97699.71;;;0.76;100.00
38688;BME280;24444;53.216;-6.664;2022-11-21T11:20:01;97696.87;;;1.12;100.00
38688;BME280;24444;53.216;-6.664;2022-11-21T11:22:29;97695.44;;;0.71;100.00
38688;BME280;24444;53.216;-6.664;2022-11-21T11:24:57;97692.43;;;0.80;100.00
38688;BME280;24444;53.216;-6.664;2022-11-21T11:27:27;97692.04;;;0.62;100.00
38688;BME280;24444;53.216;-6.664;2022-11-21T11:29:54;97692.13;;;1.00;100.00
38688;BME280;24444;53.216;-6.664;2022-11-21T11:32:22;97692.19;;;1.52;100.00
38688;BME280;24444;53.216;-6.664;2022-11-21T11:34:57;97691.53;;;0.69;100.00
38688;BME280;24444;53.216;-6.664;2022-11-21T11:37:33;97696.45;;;1.37;100.00
38688;BME280;24444;53.216;-6.664;2022-11-21T11:40:13;97698.69;;;1.05;100.00
38688;BME280;24444;53.216;-6.664;2022-11-21T11:43:07;97699.46;;;2.09;100.00
38688;BME280;24444;53.216;-6.664;2022-11-21T11:45:49;97695.95;;;1.70;100.00
38688;BME280;24444;53.216;-6.664;2022-11-21T11:48:19;97690.75;;;2.11;100.00
38688;BME280;24444;53.216;-6.664;2022-11-21T11:50:47;97686.54;;;2.46;100.00
38688;BME280;24444;53.216;-6.664;2022-11-21T11:53:19;97680.56;;;2.43;100.00
38688;BME280;24444;53.216;-6.664;2022-11-21T11:55:50;97675.70;;;2.72;100.00
38688;BME280;24444;53.216;-6.664;2022-11-21T11:58:28;97676.25;;;2.93;100.00
38688;BME280;24444;53.216;-6.664;2022-11-21T12:01:01;97675.73;;;2.66;100.00
38688;BME280;24444;53.216;-6.664;2022-11-21T12:03:38;97666.89;;;2.79;100.00
38688;BME280;24444;53.216;-6.664;2022-11-21T12:06:11;97666.78;;;3.36;100.00
38688;BME280;24444;53.216;-6.664;2022-11-21T12:08:47;97653.01;;;3.06;100.00
38688;BME280;24444;53.216;-6.664;2022-11-21T12:11:25;97643.65;;;3.26;100.00
38688;BME280;24444;53.216;-6.664;2022-11-21T12:13:55;97637.62;;;3.28;100.00
38688;BME280;24444;53.216;-6.664;2022-11-21T12:16:24;97637.39;;;3.18;100.00
38688;BME280;24444;53.216;-6.664;2022-11-21T12:18:57;97631.35;;;2.78;100.00
38688;BME280;24444;53.216;-6.664;2022-11-21T12:21:27;97633.41;;;3.24;100.00
38688;BME280;24444;53.216;-6.664;2022-11-21T12:23:56;97630.71;;;2.98;100.00
38688;BME280;24444;53.216;-6.664;2022-11-21T12:26:37;97627.44;;;3.97;100.00
38688;BME280;24444;53.216;-6.664;2022-11-21T12:29:15;97625.46;;;3.39;100.00
38688;BME280;24444;53.216;-6.664;2022-11-21T12:31:57;97623.86;;;3.27;100.00
38688;BME280;24444;53.216;-6.664;2022-11-21T12:34:42;97627.89;;;3.52;100.00
38688;BME280;24444;53.216;-6.664;2022-11-21T12:37:22;97623.87;;;3.54;100.00
38688;BME280;24444;53.216;-6.664;2022-11-21T12:39:59;97629.58;;;3.20;100.00
38688;BME280;24444;53.216;-6.664;2022-11-21T12:42:40;97628.17;;;3.17;100.00
38688;BME280;24444;53.216;-6.664;2022-11-21T12:45:28;97631.66;;;4.43;100.00
38688;BME280;24444;53.216;-6.664;2022-11-21T12:48:13;97629.85;;;4.35;100.00
38688;BME280;24444;53.216;-6.664;2022-11-21T12:50:50;97627.56;;;3.55;100.00
38688;BME280;24444;53.216;-6.664;2022-11-21T12:53:26;97624.28;;;4.08;100.00
38688;BME280;24444;53.216;-6.664;2022-11-21T12:56:03;97616.99;;;3.81;100.00
38688;BME280;24444;53.216;-6.664;2022-11-21T12:58:37;97611.65;;;3.76;100.00
38688;BME280;24444;53.216;-6.664;2022-11-21T13:01:17;97606.51;;;3.63;100.00
38688;BME280;24444;53.216;-6.664;2022-11-21T13:03:52;97600.30;;;4.00;100.00
38688;BME280;24444;53.216;-6.664;2022-11-21T13:06:24;97597.72;;;3.45;100.00